createdAt,value
2018-08-09T00:02:00.015Z,5.90
2018-08-09T00:05:04.805Z,8.60
2018-08-09T00:08:09.334Z,5.20
2018-08-09T00:11:13.792Z,5.47
2018-08-09T00:14:18.044Z,5.87
2018-08-09T00:17:22.307Z,5.63
2018-08-09T00:20:26.745Z,5.60
2018-08-09T00:23:30.817Z,6.60
2018-08-09T00:26:35.000Z,5.80
2018-08-09T00:29:39.110Z,6.10
2018-08-09T00:32:43.382Z,5.77
2018-08-09T00:35:48.107Z,5.77
2018-08-09T00:38:52.325Z,6.57
2018-08-09T00:41:56.631Z,5.83
2018-08-09T00:45:01.264Z,5.50
2018-08-09T00:48:05.806Z,4.93
2018-08-09T00:51:10.312Z,6.15
2018-08-09T00:54:15.261Z,7.20
2018-08-09T00:57:19.496Z,5.87
2018-08-09T01:00:23.931Z,6.00
2018-08-09T01:03:28.210Z,6.03
2018-08-09T01:06:32.646Z,6.33
2018-08-09T01:09:37.137Z,6.00
2018-08-09T01:12:41.341Z,5.97
2018-08-09T01:15:45.902Z,5.80
2018-08-09T01:18:50.200Z,7.10
2018-08-09T01:21:54.483Z,7.03
2018-08-09T01:24:58.771Z,6.63
2018-08-09T01:28:03.100Z,6.03
2018-08-09T01:31:07.587Z,6.53
2018-08-09T01:34:11.884Z,5.93
2018-08-09T01:37:16.221Z,6.73
2018-08-09T01:40:20.518Z,6.63
2018-08-09T01:43:35.489Z,6.27
2018-08-09T01:46:39.619Z,6.23
2018-08-09T01:49:43.909Z,6.13
2018-08-09T01:52:48.258Z,6.80
2018-08-09T01:55:52.173Z,6.60
2018-08-09T01:58:56.212Z,5.57
2018-08-09T02:02:00.209Z,6.83
2018-08-09T02:05:04.263Z,6.50
2018-08-09T02:08:08.528Z,7.63
2018-08-09T02:11:13.335Z,6.53
2018-08-09T02:14:17.560Z,6.03
2018-08-09T02:17:21.989Z,7.30
2018-08-09T02:20:26.216Z,7.83
2018-08-09T02:23:30.509Z,6.63
2018-08-09T02:26:34.860Z,7.37
2018-08-09T02:29:39.158Z,7.70
2018-08-09T02:32:43.505Z,7.20
2018-08-09T02:35:47.828Z,6.80
2018-08-09T02:38:52.145Z,7.50
2018-08-09T02:41:56.450Z,9.17
2018-08-09T02:45:00.806Z,7.40
2018-08-09T02:48:05.128Z,8.03
2018-08-09T02:51:09.309Z,7.70
2018-08-09T02:54:13.432Z,7.57
2018-08-09T02:57:17.546Z,7.80
2018-08-09T03:00:22.928Z,7.73
2018-08-09T03:03:27.443Z,7.87
2018-08-09T03:06:31.774Z,7.83
2018-08-09T03:09:36.098Z,8.33
2018-08-09T03:12:40.342Z,8.40
2018-08-09T03:15:44.517Z,9.77
2018-08-09T03:18:48.739Z,8.50
2018-08-09T03:21:53.061Z,7.27
2018-08-09T03:24:57.387Z,8.10
2018-08-09T03:28:01.666Z,8.57
2018-08-09T03:31:06.006Z,8.13
2018-08-09T03:34:10.253Z,9.17
2018-08-09T03:37:14.838Z,7.70
2018-08-09T03:40:19.114Z,9.33
2018-08-09T03:43:23.451Z,8.70
2018-08-09T03:46:27.775Z,9.17
2018-08-09T05:37:03.193Z,11.93
2018-08-09T06:58:52.247Z,10.73
2018-08-09T09:58:24.171Z,12.93
2018-08-09T10:01:35.344Z,13.20
2018-08-09T10:04:39.622Z,13.10
2018-08-09T10:07:43.761Z,12.97
2018-08-09T10:10:48.060Z,12.80
2018-08-09T10:13:52.452Z,12.17
2018-08-09T10:16:56.824Z,14.40
2018-08-09T10:20:01.017Z,13.00
2018-08-09T10:23:05.212Z,12.93
2018-08-09T10:26:09.616Z,13.03
2018-08-09T10:29:13.801Z,14.20
2018-08-09T10:32:18.111Z,14.00
2018-08-09T10:35:22.462Z,15.03
2018-08-09T10:38:26.850Z,15.13
2018-08-09T10:41:31.219Z,14.40
2018-08-09T10:44:35.543Z,14.83
2018-08-09T10:47:39.736Z,16.27
2018-08-09T10:50:44.010Z,15.60
2018-08-09T10:53:48.434Z,16.43
2018-08-09T10:56:52.751Z,17.40
2018-08-09T10:59:57.729Z,16.03
2018-08-09T11:03:02.190Z,16.67
2018-08-09T11:06:07.188Z,14.87
2018-08-09T11:09:12.490Z,16.30
2018-08-09T11:12:17.904Z,17.33
2018-08-09T11:15:22.167Z,16.60
2018-08-09T11:18:26.508Z,18.57
2018-08-09T11:21:31.179Z,16.57
2018-08-09T11:24:35.470Z,16.63
2018-08-09T11:27:39.975Z,18.10
2018-08-09T11:30:44.628Z,19.27
2018-08-09T11:33:48.935Z,18.50
2018-08-09T11:36:53.420Z,16.70
2018-08-09T11:39:57.679Z,17.20
2018-08-09T11:43:02.071Z,18.17
2018-08-09T11:46:06.387Z,19.03
2018-08-09T11:49:10.552Z,17.80
2018-08-09T11:52:15.586Z,19.23
2018-08-09T11:55:19.938Z,18.40
2018-08-09T11:58:24.181Z,19.20
2018-08-09T12:01:28.655Z,19.13
2018-08-09T12:04:33.651Z,16.90
2018-08-09T12:07:38.122Z,17.97
2018-08-09T12:10:42.378Z,18.73
2018-08-09T12:13:46.595Z,19.13
2018-08-09T12:16:51.063Z,18.20
2018-08-09T12:19:58.133Z,19.67
2018-08-09T12:23:02.431Z,19.63
2018-08-09T12:26:06.734Z,17.40
2018-08-09T12:29:11.059Z,18.60
2018-08-09T12:32:15.258Z,18.70
2018-08-09T12:35:20.676Z,18.47
2018-08-09T12:38:25.199Z,19.10
2018-08-09T12:41:29.990Z,18.40
2018-08-09T12:44:34.395Z,18.97
2018-08-09T12:47:39.072Z,19.40
2018-08-09T12:50:43.904Z,19.10
2018-08-09T12:53:48.322Z,18.80
2018-08-09T12:56:52.638Z,18.53
2018-08-09T12:59:57.179Z,18.90
2018-08-09T13:03:01.596Z,19.17
2018-08-09T13:06:06.216Z,18.50
2018-08-09T13:09:11.620Z,18.33
2018-08-09T13:12:15.946Z,18.90
2018-08-09T13:15:20.264Z,19.20
2018-08-09T13:18:25.330Z,18.03
2018-08-09T13:21:29.726Z,18.30
2018-08-09T13:24:33.988Z,18.90
2018-08-09T13:27:38.354Z,18.27
2018-08-09T13:30:42.617Z,20.57
2018-08-09T13:33:46.966Z,18.90
2018-08-09T13:36:51.613Z,20.80
2018-08-09T13:39:55.828Z,20.30
2018-08-09T13:43:00.248Z,19.63
2018-08-09T13:46:04.686Z,20.80
2018-08-09T13:49:09.193Z,20.77
2018-08-09T13:52:14.226Z,20.03
2018-08-09T13:55:18.545Z,20.50
2018-08-09T13:58:22.874Z,22.23
2018-08-09T14:01:27.306Z,21.57
2018-08-09T14:04:31.915Z,21.77
2018-08-09T14:07:35.943Z,21.10
2018-08-09T14:10:40.531Z,23.13
2018-08-09T14:13:45.020Z,21.37
2018-08-09T14:16:49.387Z,20.77
2018-08-09T14:19:53.774Z,20.17
2018-08-09T14:22:58.092Z,21.60
2018-08-09T14:26:02.313Z,20.60
2018-08-09T14:29:07.617Z,20.80
2018-08-09T14:32:11.774Z,18.40
2018-08-09T14:35:16.994Z,20.23
2018-08-09T14:38:21.258Z,18.93
2018-08-09T14:41:25.561Z,20.17
2018-08-09T14:44:29.939Z,19.97
2018-08-09T14:47:34.213Z,19.77
2018-08-09T14:50:39.798Z,19.70
2018-08-09T14:53:44.285Z,19.00
2018-08-09T14:56:49.636Z,19.43
2018-08-09T14:59:55.273Z,18.80
2018-08-09T15:03:00.123Z,20.17
2018-08-09T15:06:04.566Z,19.40
2018-08-09T15:09:10.814Z,18.10
2018-08-09T15:12:15.375Z,18.43
2018-08-09T15:15:19.888Z,17.77
2018-08-09T15:18:24.183Z,17.37
2018-08-09T15:21:28.375Z,19.93
2018-08-09T15:24:33.117Z,17.60
2018-08-09T15:27:37.611Z,16.87
2018-08-09T15:30:42.097Z,17.97
2018-08-09T15:33:46.450Z,17.10
2018-08-09T15:36:50.688Z,16.77
2018-08-09T15:39:54.945Z,17.50
2018-08-09T15:42:59.339Z,18.40
2018-08-09T15:46:03.720Z,17.77
2018-08-09T15:49:08.091Z,17.67
2018-08-09T15:52:13.364Z,17.47
2018-08-09T15:55:18.606Z,16.77
2018-08-09T15:58:23.034Z,18.87
2018-08-09T16:01:27.676Z,18.70
2018-08-09T16:04:31.959Z,17.97
2018-08-09T16:07:36.533Z,18.20
2018-08-09T16:10:40.848Z,19.77
2018-08-09T16:13:45.175Z,18.90
2018-08-09T16:16:49.467Z,17.50
2018-08-09T16:19:53.826Z,18.53
2018-08-09T16:22:58.291Z,17.73
2018-08-09T16:26:03.166Z,18.62
2018-08-09T16:29:07.752Z,18.60
2018-08-09T16:32:12.162Z,19.70
2018-08-09T16:35:16.894Z,17.27
2018-08-09T16:38:21.347Z,18.33
2018-08-09T16:41:26.007Z,19.93
2018-08-09T16:44:30.454Z,18.77
2018-08-09T16:47:35.427Z,19.00
2018-08-09T16:50:39.859Z,18.30
2018-08-09T16:53:44.558Z,19.90
2018-08-09T16:56:48.941Z,19.70
2018-08-09T16:59:53.214Z,19.43
2018-08-09T17:02:57.443Z,18.73
2018-08-09T17:06:01.826Z,19.60
2018-08-09T17:09:10.359Z,19.17
2018-08-09T17:12:14.783Z,18.87
2018-08-09T17:15:23.221Z,19.00
2018-08-09T17:18:27.684Z,18.70
2018-08-09T17:21:32.319Z,18.43
2018-08-09T17:24:36.680Z,19.50
2018-08-09T17:27:41.991Z,20.27
2018-08-09T17:30:46.555Z,19.17
2018-08-09T17:33:51.168Z,19.90
2018-08-09T17:36:55.562Z,21.70
2018-08-09T17:39:59.855Z,20.60
2018-08-09T17:43:04.817Z,20.43
2018-08-09T17:46:09.189Z,21.17
2018-08-09T17:49:13.955Z,20.93
2018-08-09T17:52:18.517Z,21.27
2018-08-09T17:55:22.835Z,20.20
2018-08-09T17:58:27.163Z,20.60
2018-08-09T18:01:31.859Z,22.80
2018-08-09T18:04:36.425Z,24.10
2018-08-09T18:07:40.895Z,20.83
2018-08-09T18:10:45.179Z,21.63
2018-08-09T18:13:49.537Z,23.13
2018-08-09T18:16:53.864Z,21.63
2018-08-09T18:19:58.498Z,24.13
2018-08-09T18:23:03.063Z,22.87
2018-08-09T18:26:07.569Z,26.40
2018-08-09T18:29:15.717Z,25.33
2018-08-09T18:32:21.634Z,27.97
2018-08-09T18:35:27.153Z,27.20
2018-08-09T18:38:31.756Z,26.83
2018-08-09T18:41:36.249Z,27.00
2018-08-09T18:44:40.616Z,31.50
2018-08-09T18:47:45.040Z,29.97
2018-08-09T18:50:49.398Z,29.50
2018-08-09T18:53:54.087Z,29.27
2018-08-09T18:56:58.517Z,30.90
2018-08-09T19:00:03.323Z,29.73
2018-08-09T19:03:08.403Z,30.57
2018-08-09T19:06:12.969Z,30.20
2018-08-09T19:09:17.438Z,31.33
2018-08-09T19:12:21.943Z,31.67
2018-08-09T19:15:26.542Z,31.83
2018-08-09T19:18:30.888Z,32.10
2018-08-09T19:21:35.165Z,32.33
2018-08-09T19:24:39.731Z,30.90
2018-08-09T19:27:44.074Z,29.70
2018-08-09T19:30:48.749Z,29.70
2018-08-09T19:33:53.541Z,29.87
2018-08-09T19:36:57.950Z,30.43
2018-08-09T19:40:02.714Z,31.97
2018-08-09T19:43:08.652Z,33.05
2018-08-09T19:46:13.131Z,33.20
2018-08-09T19:49:18.029Z,32.53
2018-08-09T19:52:22.655Z,32.30
2018-08-09T19:55:28.979Z,33.43
2018-08-09T19:58:33.389Z,33.80
2018-08-09T20:01:37.696Z,33.00
2018-08-09T20:04:41.997Z,31.80
2018-08-09T20:07:46.446Z,33.57
2018-08-09T20:10:50.844Z,34.97
2018-08-09T20:13:55.260Z,35.50
2018-08-09T20:16:59.588Z,33.27
2018-08-09T20:20:05.593Z,33.28
2018-08-09T20:23:09.897Z,36.10
2018-08-09T20:26:14.277Z,36.83
2018-08-09T20:29:18.752Z,35.50
2018-08-09T20:32:23.119Z,35.73
2018-08-09T20:35:27.517Z,33.77
2018-08-09T20:38:32.178Z,36.77
2018-08-09T20:41:36.682Z,36.70
2018-08-09T20:44:41.387Z,34.87
2018-08-09T20:47:45.929Z,37.07
2018-08-09T20:50:50.424Z,33.63
2018-08-09T20:53:54.731Z,35.00
2018-08-09T20:56:58.959Z,38.20
2018-08-09T21:00:03.513Z,36.43
2018-08-09T21:03:07.901Z,36.90
2018-08-09T21:06:12.154Z,37.10
2018-08-09T21:09:17.029Z,36.13
2018-08-09T21:12:21.509Z,34.57
2018-08-09T21:15:25.674Z,36.87
2018-08-09T21:18:29.616Z,36.87
2018-08-09T21:21:33.594Z,36.83
2018-08-09T21:24:37.602Z,38.17
2018-08-09T21:27:41.708Z,36.27
2018-08-09T21:30:45.792Z,37.57
2018-08-09T21:33:50.152Z,36.37
2018-08-09T21:36:54.438Z,39.30
2018-08-09T21:39:58.766Z,37.40
2018-08-09T21:43:03.010Z,41.00
2018-08-09T21:46:07.227Z,39.83
2018-08-09T21:49:11.434Z,36.87
2018-08-09T21:52:15.733Z,38.10
2018-08-09T21:55:20.213Z,36.47
2018-08-09T21:58:25.722Z,37.13
2018-08-09T22:01:29.971Z,38.67
2018-08-09T22:04:38.351Z,41.43
2018-08-09T22:07:47.826Z,38.77
2018-08-09T22:10:57.239Z,40.40
2018-08-09T22:14:06.893Z,39.43
2018-08-09T22:17:16.320Z,39.27
2018-08-09T22:20:25.706Z,39.27
2018-08-09T22:23:29.944Z,40.33
2018-08-09T22:26:34.242Z,38.63
2018-08-09T22:29:38.666Z,39.00
2018-08-09T22:32:43.029Z,39.53
2018-08-09T22:35:47.487Z,41.57
2018-08-09T22:38:51.830Z,38.80
2018-08-09T22:41:56.167Z,40.53
2018-08-09T22:45:00.386Z,39.70
2018-08-09T22:48:04.671Z,40.40
2018-08-09T22:51:09.068Z,39.07
2018-08-09T22:54:13.379Z,38.83
2018-08-09T22:57:17.725Z,40.83
2018-08-09T23:00:23.875Z,41.50
2018-08-09T23:03:29.148Z,38.00
2018-08-09T23:06:33.478Z,42.43
2018-08-09T23:09:38.043Z,42.93
2018-08-09T23:12:42.543Z,42.97
2018-08-09T23:15:46.929Z,40.97
2018-08-09T23:18:51.370Z,43.20
2018-08-09T23:21:55.829Z,41.63
2018-08-09T23:25:00.108Z,42.63
2018-08-09T23:28:04.436Z,41.50
2018-08-09T23:31:08.806Z,42.10
2018-08-09T23:34:13.076Z,39.57
2018-08-09T23:37:17.057Z,43.37
2018-08-09T23:40:21.422Z,42.87
2018-08-09T23:43:25.803Z,42.30
2018-08-09T23:46:30.142Z,42.10
2018-08-09T23:49:34.387Z,42.30
2018-08-09T23:52:39.459Z,41.43
2018-08-09T23:55:43.775Z,42.10
2018-08-09T23:58:48.144Z,44.37
